• Join FlightAware (Why Join?)
  • Login
  • US Flag 
04:51AM EDT


 

Airport Tracker/Info


-or-


 

Live Flight TrackerFlight Track Log ✈ FDX1351 ✈ 23-Apr-2013 ✈ KLGB - KMEM

Flight Track Log - Related Links

Times and Time Zones

All times are in EDT time to prevent confusion due to time zone crossing. See the FDX1351 flight status page for this flight to view local times or setup timezone preferences in your user account.

Time Position Orientation Groundspeed Altitude Reporting Facility
EDT Latitude Longitude Course Direction KTS MPH feet Rate Location/Type
10:01PM 33.8333 -118.1667 266° West 148 170 1,900  Level Southern California TRACON
10:02PM 33.8308 -118.2094 266° West 238 274 3,100 2,700 Climbing Los Angeles Center
10:03PM 33.7619 -118.2356 197° South 256 295 6,800 1,980 Climbing Los Angeles Center
10:04PM 33.6836 -118.2611 195° South 277 319 7,200 1,620 Climbing Los Angeles Center
10:05PM 33.6264 -118.2086 143° Southeast 282 325 10,200 3,060 Climbing Los Angeles Center
10:06PM 33.6208 -118.1042 94° East 319 367 13,500 2,880 Climbing Los Angeles Center
10:07PM 33.6228 -117.9889 89° East 344 396 16,200 2,460 Climbing Los Angeles Center
10:08PM 33.6244 -117.8500 89° East 413 475 18,700 2,580 Climbing Los Angeles Center
10:09PM 33.6261 -117.7031 89° East 438 504 21,500 2,820 Climbing Los Angeles Center
10:10PM 33.6269 -117.5186 90° East 462 532 24,600 2,520 Climbing Los Angeles Center
10:11PM 33.6281 -117.3578 89° East 480 552 26,800 2,100 Climbing Los Angeles Center
10:13PM 33.6289 -117.1903 90° East 500 575 29,000 2,100 Climbing Los Angeles Center
10:14PM 33.6453 -117.0233 83° East 506 582 31,200 2,040 Climbing Los Angeles Center
10:15PM 33.6697 -116.8400 81° East 504 580 33,200 1,680 Climbing Los Angeles Center
10:16PM 33.6917 -116.6717 81° East 508 585 34,700 840 Climbing Los Angeles Center
10:17PM 33.7128 -116.5025 81° East 510 587 35,000 120 Climbing Los Angeles Center
10:18PM 33.7344 -116.3325 81° East 512 589 35,000  Level Los Angeles Center
10:19PM 33.7556 -116.1611 82° East 517 595 35,000  Level Los Angeles Center
10:20PM 33.7764 -115.9908 82° East 516 594 35,000  Level Los Angeles Center
10:21PM 33.7978 -115.8217 81° East 511 588 35,000  Level Los Angeles Center
10:22PM 33.8178 -115.6500 82° East 517 595 35,000  Level Los Angeles Center
10:23PM 33.8378 -115.4778 82° East 521 600 35,000  Level Los Angeles Center
10:24PM 33.8619 -115.2711 82° East 520 598 35,000  Level Los Angeles Center
10:25PM 33.8819 -115.1006 82° East 517 595 35,000  Level Los Angeles Center
10:26PM 33.9017 -114.9278 82° East 521 600 35,000  Level Los Angeles Center
10:27PM 33.9228 -114.7553 82° East 520 598 35,000  Level Los Angeles Center
10:28PM 33.9419 -114.5836 82° East 518 596 35,000  Level Los Angeles Center
10:29PM 33.9603 -114.4147 82° East 512 589 35,000 -60 Level Los Angeles Center
10:30PM 33.9750 -114.2919 82° East 513 590 34,900  Descending Albuquerque Center
10:31PM 33.9933 -114.1217 83° East 509 586 35,000  Climbing Albuquerque Center
10:32PM 34.0111 -113.9517 83° East 510 587 35,000  Level Albuquerque Center
10:33PM 34.0253 -113.7822 84° East 510 587 35,000  Level Albuquerque Center
10:34PM 34.0417 -113.6122 83° East 511 588 35,000  Level Albuquerque Center
10:35PM 34.0592 -113.4436 83° East 509 586 35,000  Level Albuquerque Center
10:36PM 34.0806 -113.2408 83° East 509 586 35,000  Level Albuquerque Center
10:37PM 34.0986 -113.0711 83° East 510 587 35,000  Level Albuquerque Center
10:38PM 34.1158 -112.9000 83° East 512 589 35,000  Level Albuquerque Center
10:39PM 34.1325 -112.7297 83° East 512 589 35,000  Level Albuquerque Center
10:40PM 34.1506 -112.5581 83° East 514 592 35,000  Level Albuquerque Center
10:41PM 34.1661 -112.3839 84° East 520 598 35,000  Level Albuquerque Center
10:42PM 34.1817 -112.2097 84° East 519 597 35,000  Level Albuquerque Center
10:43PM 34.1981 -112.0347 83° East 522 601 35,000  Level Albuquerque Center
10:44PM 34.2147 -111.8408 84° East 524 603 35,000  Level Albuquerque Center
10:45PM 34.2292 -111.6786 84° East 525 604 35,000  Level Albuquerque Center
10:46PM 34.2450 -111.5031 84° East 523 602 35,000  Level Albuquerque Center
10:47PM 34.2589 -111.3258 85° East 525 604 35,000  Level Albuquerque Center
10:48PM 34.2742 -111.1494 84° East 527 606 35,000  Level Albuquerque Center
10:49PM 34.2886 -110.9728 84° East 528 608 35,000  Level Albuquerque Center
10:50PM 34.3050 -110.7586 85° East 532 612 35,000  Level Albuquerque Center
10:51PM 34.3214 -110.5800 84° East 534 615 35,000  Level Albuquerque Center
10:52PM 34.3356 -110.4044 84° East 532 612 35,000  Level Albuquerque Center
10:53PM 34.3472 -110.2311 85° East 538 619 35,000  Level Albuquerque Center
10:54PM 34.3614 -110.0292 85° East 540 621 35,000  Level Albuquerque Center
10:55PM 34.3750 -109.8578 84° East 537 618 35,000  Level Albuquerque Center
10:56PM 34.3892 -109.6558 85° East 539 620 35,000  Level Albuquerque Center
10:57PM 34.4014 -109.4817 85° East 541 623 35,000  Level Albuquerque Center
10:58PM 34.4122 -109.3081 86° East 542 624 35,000  Level Albuquerque Center
10:59PM 34.4253 -109.1050 85° East 543 625 35,000  Level Albuquerque Center
11:00PM 34.4233 -108.9303 91° East 543 625 35,000  Level Albuquerque Center
11:01PM 34.4219 -108.7553 91° East 543 625 35,000  Level Albuquerque Center
11:02PM 34.4214 -108.5489 90° East 546 628 35,000  Level Albuquerque Center
11:03PM 34.4200 -108.3603 90° East 550 633 35,000  Level Albuquerque Center
11:04PM 34.4175 -108.1756 91° East 550 633 35,000  Level Albuquerque Center
11:05PM 34.4272 -107.9928 86° East 548 631 35,000  Level Albuquerque Center
11:06PM 34.4439 -107.8122 84° East 544 626 35,000  Level Albuquerque Center
11:07PM 34.4403 -107.6281 91° East 550 633 35,000  Level Albuquerque Center
11:08PM 34.4350 -107.4450 92° East 548 631 35,000  Level Albuquerque Center
11:09PM 34.4289 -107.2594 92° East 553 636 35,000  Level Albuquerque Center
11:10PM 34.4219 -107.0744 93° East 553 636 35,000  Level Albuquerque Center
11:11PM 34.4144 -106.8522 92° East 555 639 35,000  Level Albuquerque Center
11:12PM 34.4053 -106.6631 93° East 563 648 35,000  Level Albuquerque Center
11:13PM 34.3994 -106.4756 92° East 563 648 35,000  Level Albuquerque Center
11:14PM 34.3922 -106.2881 93° East 562 647 35,000  Level Albuquerque Center
11:16PM 34.3833 -106.1086 93° East 557 641 35,000  Level Albuquerque Center
11:17PM 34.3739 -105.8878 93° East 559 643 35,000  Level Albuquerque Center
11:18PM 34.3653 -105.6981 93° East 560 644 35,000  Level Albuquerque Center
11:19PM 34.3778 -105.5078 85° East 561 646 35,000  Level Albuquerque Center
11:20PM 34.3967 -105.3200 83° East 561 646 35,000  Level Albuquerque Center
11:21PM 34.4128 -105.1314 84° East 561 646 35,000  Level Albuquerque Center
11:22PM 34.4283 -104.9436 84° East 558 642 35,000  Level Albuquerque Center
11:23PM 34.4444 -104.7561 84° East 557 641 35,000  Level Albuquerque Center
11:24PM 34.4592 -104.5703 84° East 554 638 35,000  Level Albuquerque Center
11:25PM 34.4758 -104.3836 84° East 555 639 35,000  Level Albuquerque Center
11:26PM 34.4894 -104.1969 85° East 556 640 35,000  Level Albuquerque Center
11:27PM 34.5044 -104.0083 84° East 558 642 35,000  Level Albuquerque Center
11:28PM 34.5181 -103.8200 85° East 559 643 35,000  Level Albuquerque Center
11:29PM 34.5344 -103.6008 85° East 558 642 35,000  Level Albuquerque Center
11:30PM 34.5483 -103.4122 85° East 559 643 35,000  Level Albuquerque Center
11:31PM 34.5622 -103.2222 85° East 562 647 35,000  Level Albuquerque Center
11:32PM 34.5744 -103.0333 85° East 560 644 35,000  Level Albuquerque Center
11:33PM 34.5886 -102.8444 85° East 560 644 35,000  Level Albuquerque Center
11:34PM 34.6000 -102.6553 86° East 560 644 35,000  Level Albuquerque Center
11:35PM 34.6125 -102.4475 86° East 562 647 35,000  Level Albuquerque Center
11:36PM 34.6239 -102.2611 86° East 558 642 35,000  Level Albuquerque Center
11:37PM 34.6347 -102.0808 86° East 546 628 35,000 -900 Level Albuquerque Center
11:38PM 34.6469 -101.9011 85° East 539 620 33,200 -1,020 Descending Albuquerque Center
11:39PM 34.6567 -101.7208 86° East 540 621 33,000 -120 Descending Albuquerque Center
11:40PM 34.6669 -101.5347 86° East 551 634 33,000  Level Albuquerque Center
11:41PM 34.6778 -101.3506 86° East 553 636 33,000  Level Albuquerque Center
11:42PM 34.6881 -101.1683 86° East 550 633 33,000  Level Albuquerque Center
11:43PM 34.6997 -100.9492 86° East 548 631 33,000  Level Albuquerque Center
11:44PM 34.7089 -100.7642 86° East 551 634 33,000  Level Albuquerque Center
11:45PM 34.7175 -100.5778 87° East 554 638 33,000  Level Albuquerque Center
11:46PM 34.7258 -100.3917 87° East 554 638 33,000  Level Albuquerque Center
11:47PM 34.7344 -100.2117 87° East 555 639 33,000  Level Albuquerque Center
11:48PM 34.7431 -100.0250 87° East 554 638 33,000  Level Albuquerque Center
11:49PM 34.7506 -99.8361 87° East 557 641 33,000  Level Albuquerque Center
11:50PM 34.7575 -99.6908 87° East 554 638 33,000  Level Fort Worth Center
11:51PM 34.7628 -99.5064 88° East 554 638 33,000  Level Fort Worth Center
11:52PM 34.7700 -99.3169 87° East 549 632 33,000  Level Fort Worth Center
11:53PM 34.7750 -99.1275 88° East 549 632 33,000  Level Fort Worth Center
11:54PM 34.7836 -98.9431 87° East 549 632 33,000  Level Fort Worth Center
11:55PM 34.7878 -98.7586 88° East 549 632 33,000  Level Fort Worth Center
11:56PM 34.7958 -98.5969 86° East 549 632 33,000  Level Fort Worth Center
11:57PM 34.7994 -98.4150 89° East 549 632 33,000  Level Fort Worth Center
11:58PM 34.8050 -98.2303 88° East 549 632 33,000  Level Fort Worth Center
11:59PM 34.8081 -98.0483 89° East 544 626 33,000  Level Fort Worth Center
12:00AM 34.8131 -97.8636 88° East 544 626 33,000  Level Fort Worth Center
12:01AM 34.8178 -97.6767 88° East 544 626 33,000  Level Fort Worth Center
12:02AM 34.8200 -97.4919 89° East 544 626 33,000  Level Fort Worth Center
12:03AM 34.8242 -97.3022 88° East 544 626 33,000  Level Fort Worth Center
12:04AM 34.8281 -97.1200 88° East 549 632 33,000  Level Fort Worth Center
12:05AM 34.8317 -96.9353 89° East 549 632 33,000  Level Fort Worth Center
12:06AM 34.8350 -96.7483 89° East 549 632 33,000  Level Fort Worth Center
12:07AM 34.8381 -96.5636 89° East 549 632 33,000  Level Fort Worth Center
12:08AM 34.8389 -96.3789 90° East 549 632 33,000  Level Fort Worth Center
12:09AM 34.8414 -96.1967 89° East 549 632 33,000  Level Fort Worth Center
12:10AM 34.8436 -96.0094 89° East 549 632 33,000  Level Fort Worth Center
12:11AM 34.8456 -95.8222 89° East 549 632 33,000  Level Fort Worth Center
12:13AM 34.8356 -95.3767 91° East 538 619 33,000  Level Memphis Center
12:14AM 34.8261 -95.1914 94° East 543 625 33,000  Level Memphis Center
12:15AM 34.8122 -95.0086 95° East 543 625 33,000  Level Memphis Center
12:16AM 34.7939 -94.8256 97° East 543 625 33,000  Level Memphis Center
12:17AM 34.7794 -94.6428 95° East 543 625 33,000  Level Memphis Center
12:18AM 34.7647 -94.4575 95° East 543 625 33,000  Level Memphis Center
12:19AM 34.7481 -94.2644 96° East 552 635 33,000  Level Memphis Center
12:20AM 34.7328 -94.0794 96° East 557 641 33,000  Level Memphis Center
12:21AM 34.7172 -93.8994 96° East 557 641 33,000  Level Memphis Center
12:22AM 34.6992 -93.7192 97° East 551 634 33,000  Level Memphis Center
12:23AM 34.6831 -93.5367 96° East 546 628 33,000  Level Memphis Center
12:24AM 34.6669 -93.3544 96° East 541 623 33,000  Level Memphis Center
12:25AM 34.6503 -93.1694 96° East 541 623 33,000  Level Memphis Center
12:26AM 34.6294 -92.9719 97° East 546 628 33,000 -240 Level Memphis Center
12:27AM 34.6122 -92.7922 97° East 546 628 32,600 -660 Descending Memphis Center
12:28AM 34.5947 -92.6125 97° East 541 623 31,700 -960 Descending Memphis Center
12:29AM 34.5769 -92.4356 97° East 541 623 30,700 -1,020 Descending Memphis Center
12:30AM 34.5589 -92.2586 97° East 541 623 29,700 -1,020 Descending Memphis Center
12:31AM 34.5406 -92.0919 98° East 519 597 28,700 -1,020 Descending Memphis Center
12:32AM 34.5239 -91.9250 97° East 506 582 27,700 -1,020 Descending Memphis Center
12:33AM 34.5028 -91.7683 99° East 495 570 26,700 -1,020 Descending Memphis Center
12:34AM 34.4247 -91.6614 131° Southeast 442 509 25,700 -1,020 Descending Memphis Center
12:35AM 34.3425 -91.5444 130° Southeast 437 503 24,700 -1,020 Descending Memphis Center
12:36AM 34.3481 -91.3911 87° East 429 494 23,700 -1,500 Descending Memphis Center
12:37AM 34.4033 -91.2508 64° Northeast 436 502 21,800 -2,220 Descending Memphis Center
12:38AM 34.4667 -91.1206 59° Northeast 430 495 19,300 -2,400 Descending Memphis Center
12:39AM 34.5258 -90.9950 60° Northeast 430 495 17,000 -2,100 Descending Memphis Center
12:40AM 34.5806 -90.8894 58° Northeast 425 489 15,100 -1,500 Descending Memphis Center
12:41AM 34.6519 -90.7839 51° Northeast 408 470 14,000 -540 Descending Memphis Center
12:42AM 34.7294 -90.6933 44° Northeast 388 447 14,100  Climbing Memphis Center
12:43AM 34.8025 -90.7264 340° North 239 275 14,000 -120 Descending Memphis Center
12:44AM 34.7853 -90.8097 256° West 160 184 13,900 -180 Descending Memphis Center
12:45AM 34.7642 -90.8881 252° West 189 217 13,700  Descending Memphis Center
12:46AM 34.7222 -90.9611 235° Southwest 249 287 14,000 120 Climbing Memphis Center
12:47AM 34.6800 -91.0264 232° Southwest 249 287 14,000  Level Memphis Center
12:48AM 34.6381 -91.0942 233° Southwest 254 292 14,100  Climbing Memphis Center
12:49AM 34.5939 -91.1619 232° Southwest 254 292 14,100  Level Memphis Center
12:50AM 34.5517 -91.2247 231° Southwest 253 291 14,100  Level Memphis Center
12:51AM 34.4889 -91.2339 187° South 234 269 14,100  Level Memphis Center
12:52AM 34.4583 -91.1356 111° Southeast 227 261 14,100 -60 Level Memphis Center
12:53AM 34.4778 -91.0375 76° East 254 292 14,000 -60 Descending Memphis Center
12:54AM 34.5406 -90.9572 46° Northeast 301 346 14,000  Level Memphis Center
12:55AM 34.5975 -90.8719 51° Northeast 311 358 14,000 -240 Level Memphis Center
12:56AM 34.6456 -90.7939 53° Northeast 320 368 13,600 -1,080 Descending Memphis Center
12:57AM 34.7064 -90.7058 50° Northeast 327 376 11,900 -1,560 Descending Memphis Center
12:58AM 34.7631 -90.6275 49° Northeast 315 362 10,500 -1,500 Descending Memphis Center
12:59AM 34.7861 -90.5342 73° East 275 316 9,000 -1,440 Descending Memphis Center
01:00AM 34.7550 -90.4481 114° Southeast 266 306 7,700 -1,320 Descending Memphis Center
01:01AM 34.7214 -90.3647 116° Southeast 266 306 6,400 -900 Descending Memphis Center
01:02AM 34.6922 -90.2864 114° Southeast 266 306 6,000 -300 Descending Memphis Center
01:03AM 34.6567 -90.2056 118° Southeast 250 288 5,800 -780 Descending Memphis Center
01:04AM 34.6358 -90.1300 109° East 244 281 4,500 -900 Descending Memphis Center
01:05AM 34.6647 -90.0617 63° Northeast 224 258 4,000 -900 Descending Memphis Center
01:06AM 34.7314 -90.0286 22° Northeast 225 259 2,700 -1,020 Descending Memphis Center
01:07AM 34.7981 -89.9931 24° Northeast 249 287 2,000 -360 Descending Memphis Center
01:08AM 34.8669 -89.9850 North 250 288 2,000  Level Memphis Center
01:09AM 34.9256 -89.9897 356° North 221 254 2,000 -240 Level Memphis Center
01:10AM 34.9714 -89.9872 North 197 227 1,600 -720 Descending Memphis Center
01:11AM 35.0150 -89.9894 358° North 165 190 600 -1,020 Descending Memphis Center
01:13AM 35.0333 -89.9667 North  Level FlightAware Approximate